Pedro Osorio, Brazil
Current Conditions -  °F | °C
As of 6:00 PM on Monday 26 Jan 2015 (Local Time) from SBSM Reporting Station
Light Rain Light Rain  
Wind Chill: 75°   Ceiling: 3500
Heat Index: 75°   Visibility: 6mi
Dew Point: 73°   Wind: 6mph
Humidity: 94%   Direction: 120°ESE
Pressure: NA   Gusts: NA
Location:  31.86°S, 52.82°W
Report Text: SBSM 262000Z 12005KT 070V190 9999 -RA BKN035 FEW040TCU 24/23 Q1009 RETSRA
Loading
Personal Weather Stations






























Interactive Weather Map New forecast layout! Learn more

10-Day Weather Forecast

Advertisements
Track Severe Weather on mobile